createdAt,value
2023-05-19T00:00:24.814Z,56.53
2023-05-19T00:02:01.974Z,57.24
2023-05-19T00:03:31.758Z,58.92
2023-05-19T00:05:08.261Z,60.60
2023-05-19T00:06:49.203Z,62.18
2023-05-19T00:08:22.968Z,64.23
2023-05-19T00:09:58.635Z,63.84
2023-05-19T00:11:39.732Z,61.12
2023-05-19T00:13:12.933Z,58.12
2023-05-19T00:14:37.162Z,56.45
2023-05-19T00:16:30.740Z,57.36
2023-05-19T00:18:00.231Z,59.31
2023-05-19T00:19:26.747Z,60.84
2023-05-19T00:21:15.215Z,62.63
2023-05-19T00:22:51.295Z,64.04
2023-05-19T00:24:27.006Z,62.19
2023-05-19T00:26:00.784Z,59.86
2023-05-19T00:27:34.579Z,56.87
2023-05-19T00:29:19.963Z,56.91
2023-05-19T00:30:41.828Z,58.48
2023-05-19T00:32:16.656Z,60.00
2023-05-19T00:33:58.160Z,61.91
2023-05-19T00:35:35.002Z,63.87
2023-05-19T00:37:10.768Z,63.93
2023-05-19T00:38:44.205Z,61.20
2023-05-19T00:40:06.566Z,58.91
2023-05-19T00:41:30.466Z,56.86
2023-05-19T00:43:21.289Z,57.12
2023-05-19T00:44:59.361Z,59.07
2023-05-19T00:46:23.669Z,60.66
2023-05-19T00:47:45.554Z,62.10
2023-05-19T00:49:18.887Z,63.97
2023-05-19T00:51:03.996Z,63.83
2023-05-19T00:52:40.101Z,61.22
2023-05-19T00:54:20.953Z,58.40
2023-05-19T00:55:56.548Z,56.55
2023-05-19T00:57:32.564Z,57.61
2023-05-19T00:59:19.884Z,59.51
2023-05-19T01:01:13.751Z,61.61
2023-05-19T01:02:47.639Z,64.06
2023-05-19T01:04:21.813Z,63.94
2023-05-19T01:06:06.762Z,61.46
2023-05-19T01:08:00.351Z,58.31
2023-05-19T01:09:41.059Z,56.64
2023-05-19T01:11:31.391Z,57.87
2023-05-19T01:12:53.227Z,59.67
2023-05-19T01:14:27.023Z,60.88
2023-05-19T01:16:13.167Z,62.63
2023-05-19T01:17:37.410Z,64.41
2023-05-19T01:19:19.484Z,63.33
2023-05-19T01:20:58.122Z,60.36
2023-05-19T01:22:43.806Z,57.03
2023-05-19T01:24:27.273Z,56.78
2023-05-19T01:25:58.271Z,58.44
2023-05-19T01:27:43.579Z,60.30
2023-05-19T01:29:18.755Z,62.14
2023-05-19T01:30:52.775Z,63.85
2023-05-19T01:32:26.216Z,63.69
2023-05-19T01:34:04.595Z,61.22
2023-05-19T01:35:38.015Z,58.72
2023-05-19T01:37:26.853Z,56.83
2023-05-19T01:39:11.677Z,58.15
2023-05-19T01:40:57.001Z,60.22
2023-05-19T01:42:41.858Z,62.29
2023-05-19T01:44:23.888Z,64.61
2023-05-19T01:45:47.918Z,63.77
2023-05-19T01:47:32.880Z,61.03
2023-05-19T01:49:06.723Z,58.02
2023-05-19T01:50:42.481Z,56.88
2023-05-19T01:52:23.082Z,57.97
2023-05-19T01:53:52.376Z,59.77
2023-05-19T01:55:28.167Z,61.86
2023-05-19T01:57:01.742Z,63.91
2023-05-19T01:58:37.502Z,64.54
2023-05-19T02:00:23.335Z,62.21
2023-05-19T02:01:47.736Z,59.66
2023-05-19T02:03:22.069Z,57.33
2023-05-19T02:05:07.179Z,57.34
2023-05-19T02:06:40.839Z,59.11
2023-05-19T02:08:19.589Z,60.77
2023-05-19T02:10:04.757Z,63.09
2023-05-19T02:11:33.917Z,64.72
2023-05-19T02:13:18.750Z,63.15
2023-05-19T02:14:42.805Z,60.65
2023-05-19T02:16:18.420Z,58.16
2023-05-19T02:18:03.614Z,57.17
2023-05-19T02:19:40.173Z,58.63
2023-05-19T02:21:13.273Z,60.28
2023-05-19T02:22:47.025Z,62.17
2023-05-19T02:24:32.015Z,64.65
2023-05-19T02:26:17.497Z,63.62
2023-05-19T02:27:49.001Z,60.79
2023-05-19T02:29:41.595Z,58.11
2023-05-19T02:31:10.820Z,57.20
2023-05-19T02:32:58.375Z,58.65
2023-05-19T02:34:33.984Z,60.78
2023-05-19T02:36:10.189Z,62.59
2023-05-19T02:37:44.163Z,64.56
2023-05-19T02:39:15.415Z,63.67
2023-05-19T02:40:51.377Z,61.17
2023-05-19T02:42:17.734Z,59.05
2023-05-19T02:44:00.335Z,57.08
2023-05-19T02:45:33.820Z,57.78
2023-05-19T02:47:14.809Z,59.85
2023-05-19T02:48:55.646Z,61.75
2023-05-19T02:50:24.221Z,64.05
2023-05-19T02:52:02.749Z,64.65
2023-05-19T02:53:47.752Z,62.21
2023-05-19T02:55:21.281Z,59.43
2023-05-19T02:56:54.666Z,57.34
2023-05-19T02:58:27.668Z,57.73
2023-05-19T03:00:08.809Z,59.22
2023-05-19T03:01:49.599Z,61.61
2023-05-19T03:03:16.159Z,63.66
2023-05-19T03:04:57.872Z,64.64
2023-05-19T03:06:38.612Z,62.50
2023-05-19T03:08:12.104Z,59.89
2023-05-19T03:09:45.637Z,57.49
2023-05-19T03:11:19.153Z,57.42
2023-05-19T03:12:52.923Z,58.98
2023-05-19T03:14:17.296Z,60.67
2023-05-19T03:15:53.089Z,61.99
2023-05-19T03:17:38.294Z,64.40
2023-05-19T03:19:07.365Z,64.40
2023-05-19T03:20:54.217Z,61.93
2023-05-19T03:22:21.206Z,59.21
2023-05-19T03:24:07.140Z,57.04
2023-05-19T03:25:43.210Z,57.72
2023-05-19T03:27:07.192Z,59.59
2023-05-19T03:28:48.037Z,61.47
2023-05-19T03:30:09.862Z,63.53
2023-05-19T03:31:42.829Z,64.75
2023-05-19T03:33:17.098Z,63.38
2023-05-19T03:34:41.098Z,60.85
2023-05-19T03:36:14.084Z,58.84
2023-05-19T03:37:49.789Z,57.38
2023-05-19T03:39:23.248Z,58.37
2023-05-19T03:41:05.137Z,60.27
2023-05-19T03:42:41.386Z,62.51
2023-05-19T03:44:05.130Z,64.50
2023-05-19T03:45:50.407Z,63.86
2023-05-19T03:47:49.934Z,61.04
2023-05-19T03:49:54.004Z,57.81
2023-05-19T03:51:48.285Z,57.63
2023-05-19T03:53:26.509Z,59.36
2023-05-19T03:55:07.599Z,61.47
2023-05-19T03:56:41.030Z,63.82
2023-05-19T03:58:17.072Z,64.26
2023-05-19T03:59:53.188Z,62.53
2023-05-19T04:01:37.977Z,59.95
2023-05-19T04:03:23.420Z,57.54
2023-05-19T04:04:57.125Z,57.76
2023-05-19T04:06:43.929Z,59.64
2023-05-19T04:08:05.587Z,61.70
2023-05-19T04:09:39.172Z,63.52
2023-05-19T04:11:15.222Z,64.64
2023-05-19T04:12:48.929Z,62.63
2023-05-19T04:14:25.264Z,60.15
2023-05-19T04:15:58.716Z,58.10
2023-05-19T04:17:34.390Z,57.73
2023-05-19T04:19:10.541Z,59.34
2023-05-19T04:20:36.796Z,61.29
2023-05-19T04:22:03.000Z,63.38
2023-05-19T04:23:48.197Z,64.70
2023-05-19T04:25:23.825Z,62.64
2023-05-19T04:27:01.218Z,60.24
2023-05-19T04:28:27.697Z,58.27
2023-05-19T04:30:01.011Z,57.63
2023-05-19T04:31:33.444Z,58.90
2023-05-19T04:32:55.282Z,60.62
2023-05-19T04:34:40.616Z,62.51
2023-05-19T04:36:23.476Z,64.69
2023-05-19T04:38:07.367Z,63.82
2023-05-19T04:39:42.967Z,61.58
2023-05-19T04:41:13.918Z,59.24
2023-05-19T04:42:53.028Z,57.74
2023-05-19T04:44:38.360Z,58.38
2023-05-19T04:46:00.228Z,60.45
2023-05-19T04:47:21.876Z,62.10
2023-05-19T04:48:48.234Z,63.87
2023-05-19T04:50:28.722Z,64.78
2023-05-19T04:51:55.552Z,62.46
2023-05-19T04:53:41.413Z,60.06
2023-05-19T04:55:27.793Z,57.73
2023-05-19T04:56:52.301Z,58.03
2023-05-19T04:58:26.141Z,59.25
2023-05-19T05:00:00.035Z,61.24
2023-05-19T05:01:34.688Z,63.58
2023-05-19T05:03:01.311Z,64.00
2023-05-19T05:04:47.869Z,62.27
2023-05-19T05:06:29.403Z,60.21
2023-05-19T05:08:18.190Z,57.61
2023-05-19T05:09:59.327Z,57.31
2023-05-19T05:11:32.881Z,59.16
2023-05-19T05:12:57.849Z,60.58
2023-05-19T05:14:31.537Z,62.11
2023-05-19T05:16:19.346Z,64.60
2023-05-19T05:18:13.103Z,63.78
2023-05-19T05:19:54.987Z,60.96
2023-05-19T05:21:31.105Z,59.02
2023-05-19T05:23:04.689Z,57.56
2023-05-19T05:24:38.861Z,58.38
2023-05-19T05:26:24.685Z,60.38
2023-05-19T05:28:08.657Z,62.06
2023-05-19T05:29:54.766Z,64.61
2023-05-19T05:31:19.469Z,63.60
2023-05-19T05:32:53.093Z,61.47
2023-05-19T05:34:29.520Z,58.68
2023-05-19T05:36:10.609Z,56.91
2023-05-19T05:37:43.795Z,58.42
2023-05-19T05:39:28.733Z,60.02
2023-05-19T05:41:02.548Z,61.66
2023-05-19T05:42:28.876Z,63.75
2023-05-19T05:44:05.538Z,64.28
2023-05-19T05:45:39.337Z,62.67
2023-05-19T05:47:15.289Z,60.02
2023-05-19T05:48:41.905Z,58.25
2023-05-19T05:50:17.584Z,57.53
2023-05-19T05:51:42.988Z,58.41
2023-05-19T05:53:12.623Z,60.04
2023-05-19T05:54:38.412Z,62.02
2023-05-19T05:56:23.830Z,64.06
2023-05-19T05:58:20.322Z,63.71
2023-05-19T06:00:08.308Z,60.58
2023-05-19T06:01:46.292Z,57.98
2023-05-19T06:03:22.454Z,57.32
2023-05-19T06:04:56.992Z,58.41
2023-05-19T06:06:37.458Z,60.92
2023-05-19T06:08:01.705Z,62.47
2023-05-19T06:09:32.735Z,64.64
2023-05-19T06:11:07.940Z,63.80
2023-05-19T06:12:44.333Z,61.43
2023-05-19T06:14:24.847Z,59.21
2023-05-19T06:16:16.762Z,57.10
2023-05-19T06:18:12.946Z,58.18
2023-05-19T06:19:47.155Z,60.66
2023-05-19T06:21:32.241Z,63.03
2023-05-19T06:23:20.340Z,64.63
2023-05-19T06:24:46.636Z,62.91
2023-05-19T06:26:27.239Z,60.89
2023-05-19T06:28:00.900Z,58.33
2023-05-19T06:29:34.479Z,57.12
2023-05-19T06:31:01.071Z,57.98
2023-05-19T06:32:46.406Z,59.88
2023-05-19T06:34:26.775Z,62.22
2023-05-19T06:36:12.405Z,64.39
2023-05-19T06:37:58.450Z,63.70
2023-05-19T06:39:31.400Z,61.38
2023-05-19T06:41:06.890Z,58.83
2023-05-19T06:42:39.386Z,57.34
2023-05-19T06:44:36.994Z,58.67
2023-05-19T06:46:17.884Z,60.29
2023-05-19T06:47:56.574Z,61.81
2023-05-19T06:49:30.284Z,63.57
2023-05-19T06:51:15.419Z,63.96
2023-05-19T06:53:00.843Z,61.72
2023-05-19T06:54:33.804Z,58.86
2023-05-19T06:56:19.648Z,57.49
2023-05-19T06:57:49.401Z,58.61
2023-05-19T06:59:25.705Z,60.29
2023-05-19T07:01:02.412Z,61.99
2023-05-19T07:02:51.255Z,64.33
2023-05-19T07:04:38.589Z,64.12
2023-05-19T07:06:23.206Z,61.34
2023-05-19T07:08:09.700Z,58.93
2023-05-19T07:09:41.046Z,57.01
2023-05-19T07:11:02.951Z,57.69
2023-05-19T07:12:32.546Z,59.61
2023-05-19T07:14:10.790Z,61.26
2023-05-19T07:15:55.764Z,63.55
2023-05-19T07:17:31.813Z,64.70
2023-05-19T07:19:03.461Z,62.03
2023-05-19T07:20:39.574Z,60.02
2023-05-19T07:22:24.669Z,57.17
2023-05-19T07:24:06.306Z,56.44
2023-05-19T07:25:42.700Z,58.70
2023-05-19T07:27:16.442Z,60.00
2023-05-19T07:28:41.735Z,61.58
2023-05-19T07:30:15.241Z,63.65
2023-05-19T07:32:00.437Z,63.63
2023-05-19T07:33:36.316Z,60.57
2023-05-19T07:34:58.621Z,58.20
2023-05-19T07:36:34.149Z,56.81
2023-05-19T07:37:58.411Z,57.48
2023-05-19T07:39:32.333Z,58.77
2023-05-19T07:41:17.047Z,60.52
2023-05-19T07:42:45.947Z,62.55
2023-05-19T07:44:17.638Z,64.23
2023-05-19T07:46:03.070Z,62.97
2023-05-19T07:47:43.630Z,60.24
2023-05-19T07:49:17.457Z,57.16
2023-05-19T07:50:46.780Z,56.95
2023-05-19T07:52:10.876Z,57.78
2023-05-19T07:53:55.936Z,59.58
2023-05-19T07:55:41.127Z,61.21
2023-05-19T07:57:28.867Z,63.50
2023-05-19T07:59:02.422Z,63.61
2023-05-19T08:00:47.352Z,61.27
2023-05-19T08:02:11.515Z,58.06
2023-05-19T08:03:52.275Z,56.50
2023-05-19T08:05:30.632Z,57.30
2023-05-19T08:06:57.177Z,59.01
2023-05-19T08:08:37.600Z,60.86
2023-05-19T08:10:19.819Z,62.37
2023-05-19T08:12:04.904Z,64.77
2023-05-19T08:13:40.639Z,63.21
2023-05-19T08:15:31.302Z,60.73
2023-05-19T08:17:13.644Z,57.02
2023-05-19T08:18:46.950Z,56.90
2023-05-19T08:20:22.948Z,58.08
2023-05-19T08:22:09.049Z,59.90
2023-05-19T08:23:32.892Z,60.85
2023-05-19T08:25:09.739Z,61.91
2023-05-19T08:26:41.461Z,63.14
2023-05-19T08:28:10.726Z,64.30
2023-05-19T08:29:56.066Z,61.49
2023-05-19T08:31:32.817Z,58.70
2023-05-19T08:33:15.435Z,56.91
2023-05-19T08:34:51.644Z,58.05
2023-05-19T08:36:36.690Z,59.66
2023-05-19T08:38:09.894Z,61.21
2023-05-19T08:39:38.627Z,62.09
2023-05-19T08:41:14.890Z,63.80
2023-05-19T08:42:43.712Z,63.56
2023-05-19T08:44:05.349Z,61.44
2023-05-19T08:45:29.781Z,58.83
2023-05-19T08:47:06.780Z,56.95
2023-05-19T08:48:40.159Z,57.39
2023-05-19T08:50:25.470Z,58.99
2023-05-19T08:51:46.912Z,60.62
2023-05-19T08:53:36.105Z,62.15
2023-05-19T08:55:00.877Z,64.09
2023-05-19T08:56:27.423Z,63.42
2023-05-19T08:57:53.927Z,61.16
2023-05-19T08:59:27.456Z,57.93
2023-05-19T09:00:49.402Z,56.48
2023-05-19T09:02:22.792Z,57.02
2023-05-19T09:03:59.084Z,58.28
2023-05-19T09:05:34.795Z,59.95
2023-05-19T09:07:12.759Z,61.02
2023-05-19T09:08:47.072Z,63.12
2023-05-19T09:10:09.125Z,63.89
2023-05-19T09:11:42.522Z,62.17
2023-05-19T09:15:20.972Z,56.43
2023-05-19T09:16:42.933Z,57.10
2023-05-19T09:18:04.442Z,58.57
2023-05-19T09:19:26.177Z,59.68
2023-05-19T09:21:07.248Z,61.45
2023-05-19T09:22:43.275Z,62.73
2023-05-19T09:24:05.363Z,63.99
2023-05-19T09:25:27.312Z,62.51
2023-05-19T09:27:00.229Z,60.10
2023-05-19T09:28:31.644Z,57.17
2023-05-19T09:29:53.905Z,57.31
2023-05-19T09:31:29.819Z,58.40
2023-05-19T09:33:01.487Z,59.33
2023-05-19T09:34:26.838Z,60.84
2023-05-19T09:36:00.157Z,62.36
2023-05-19T09:37:22.260Z,64.00
2023-05-19T09:38:58.357Z,63.59
2023-05-19T09:40:42.774Z,61.07
2023-05-19T09:42:16.572Z,57.84
2023-05-19T09:43:50.183Z,56.82
2023-05-19T09:45:31.488Z,57.26
2023-05-19T09:47:04.988Z,58.74
2023-05-19T09:48:40.750Z,60.33
2023-05-19T09:50:09.923Z,61.79
2023-05-19T09:51:34.273Z,62.48
2023-05-19T09:53:07.550Z,63.50
2023-05-19T09:54:47.950Z,62.20
2023-05-19T09:56:29.031Z,59.22
2023-05-19T09:57:53.444Z,56.87
2023-05-19T09:59:22.434Z,57.20
2023-05-19T10:00:58.235Z,58.23
2023-05-19T10:02:33.620Z,59.71
2023-05-19T10:04:03.758Z,61.12
2023-05-19T10:05:29.198Z,62.20
2023-05-19T10:07:06.063Z,64.42
2023-05-19T10:08:30.267Z,63.69
2023-05-19T10:10:04.157Z,60.61
2023-05-19T10:11:33.112Z,58.29
2023-05-19T10:12:57.411Z,56.80
2023-05-19T10:14:29.092Z,57.26
2023-05-19T10:16:02.707Z,58.94
2023-05-19T10:17:25.001Z,60.65
2023-05-19T10:18:57.145Z,61.36
2023-05-19T10:20:31.038Z,62.63
2023-05-19T10:21:55.454Z,64.11
2023-05-19T10:23:28.820Z,63.38
2023-05-19T10:25:14.762Z,60.65
2023-05-19T10:26:38.792Z,57.63
2023-05-19T10:28:13.990Z,56.46
2023-05-19T10:29:45.438Z,57.35
2023-05-19T10:31:30.602Z,58.97
2023-05-19T10:33:08.345Z,60.76
2023-05-19T10:34:37.340Z,62.12
2023-05-19T10:35:59.398Z,63.79
2023-05-19T10:37:35.923Z,64.20
2023-05-19T10:39:10.427Z,62.32
2023-05-19T10:40:39.752Z,59.61
2023-05-19T10:42:21.042Z,57.01
2023-05-19T10:43:54.983Z,57.63
2023-05-19T10:45:35.816Z,58.52
2023-05-19T10:47:14.833Z,59.97
2023-05-19T10:48:50.334Z,61.39
2023-05-19T10:50:12.024Z,63.17
2023-05-19T10:51:45.559Z,63.85
2023-05-19T10:53:29.760Z,62.05
2023-05-19T10:54:56.295Z,59.54
2023-05-19T10:56:42.112Z,56.72
2023-05-19T10:58:13.696Z,56.17
2023-05-19T10:59:47.527Z,57.63
2023-05-19T11:01:22.181Z,59.59
2023-05-19T11:02:56.126Z,60.72
2023-05-19T11:04:20.373Z,61.99
2023-05-19T11:05:53.998Z,62.97
2023-05-19T11:07:29.752Z,64.03
2023-05-19T11:09:22.556Z,62.02
2023-05-19T11:11:11.848Z,57.93
2023-05-19T11:12:48.441Z,55.85
2023-05-19T11:14:26.993Z,56.67
2023-05-19T11:16:02.753Z,58.77
2023-05-19T11:17:43.806Z,60.26
2023-05-19T11:19:08.087Z,61.70
2023-05-19T11:20:32.006Z,62.33
2023-05-19T11:21:57.516Z,64.46
2023-05-19T11:23:34.763Z,63.52
2023-05-19T11:24:59.761Z,60.23
2023-05-19T11:26:43.894Z,57.54
2023-05-19T11:28:29.234Z,56.55
2023-05-19T11:30:14.592Z,57.84
2023-05-19T11:31:48.582Z,59.12
2023-05-19T11:33:09.944Z,60.43
2023-05-19T11:34:47.464Z,62.32
2023-05-19T11:36:09.306Z,64.50
2023-05-19T11:37:31.052Z,63.45
2023-05-19T11:39:13.941Z,60.78
2023-05-19T11:40:47.198Z,58.35
2023-05-19T11:42:28.434Z,55.95
2023-05-19T11:43:54.897Z,56.09
2023-05-19T11:45:36.345Z,57.98
2023-05-19T11:47:15.981Z,59.24
2023-05-19T11:48:40.241Z,60.48
2023-05-19T11:50:15.562Z,61.57
2023-05-19T11:51:48.585Z,62.82
2023-05-19T11:53:20.044Z,63.55
2023-05-19T11:54:44.106Z,61.83
2023-05-19T11:56:17.694Z,58.91
2023-05-19T11:58:02.733Z,56.80
2023-05-19T11:59:49.556Z,56.92
2023-05-19T12:01:23.013Z,58.22
2023-05-19T12:02:52.497Z,59.53
2023-05-19T12:04:26.027Z,60.83
2023-05-19T12:05:52.734Z,62.08
2023-05-19T12:07:25.986Z,63.77
2023-05-19T12:09:02.121Z,63.57
2023-05-19T12:10:24.138Z,60.29
2023-05-19T12:11:45.601Z,57.90
2023-05-19T12:13:11.047Z,56.72
2023-05-19T12:14:44.740Z,57.38
2023-05-19T12:16:18.224Z,58.51
2023-05-19T12:17:42.291Z,59.99
2023-05-19T12:19:04.348Z,61.62
2023-05-19T12:20:28.071Z,62.98
2023-05-19T12:21:52.459Z,64.47
2023-05-19T12:23:25.946Z,63.30
2023-05-19T12:24:58.054Z,60.01
2023-05-19T12:26:22.284Z,57.32
2023-05-19T12:27:56.177Z,56.49
2023-05-19T12:29:32.857Z,57.85
2023-05-19T12:31:02.381Z,59.08
2023-05-19T12:32:24.493Z,60.18
2023-05-19T12:33:48.515Z,61.19
2023-05-19T12:35:29.176Z,63.05
2023-05-19T12:37:02.945Z,64.06
2023-05-19T12:38:49.285Z,61.93
2023-05-19T12:40:15.759Z,58.99
2023-05-19T12:41:49.464Z,56.88
2023-05-19T12:43:23.094Z,56.13
2023-05-19T12:44:46.806Z,57.58
2023-05-19T12:46:32.206Z,58.85
2023-05-19T12:48:18.220Z,60.82
2023-05-19T12:50:01.704Z,62.34
2023-05-19T12:51:33.253Z,63.07
2023-05-19T12:53:07.160Z,62.24
2023-05-19T12:54:31.537Z,59.39
2023-05-19T12:56:14.065Z,56.76
2023-05-19T12:57:48.576Z,56.58
2023-05-19T12:59:37.105Z,58.08
2023-05-19T13:01:04.682Z,59.43
2023-05-19T13:02:26.562Z,60.71
2023-05-19T13:03:49.054Z,61.78
2023-05-19T13:05:29.818Z,63.72
2023-05-19T13:07:03.542Z,63.79
2023-05-19T13:08:36.957Z,61.16
2023-05-19T13:10:21.831Z,58.11
2023-05-19T13:11:43.661Z,56.62
2023-05-19T13:13:07.968Z,57.29
2023-05-19T13:14:43.551Z,58.70
2023-05-19T13:16:08.075Z,60.02
2023-05-19T13:17:37.326Z,61.42
2023-05-19T13:19:02.005Z,62.92
2023-05-19T13:20:24.303Z,64.14
2023-05-19T13:21:47.758Z,63.33
2023-05-19T13:23:32.761Z,61.02
2023-05-19T13:25:02.190Z,57.98
2023-05-19T13:26:24.263Z,56.58
2023-05-19T13:27:59.370Z,57.31
2023-05-19T13:29:29.194Z,58.56
2023-05-19T13:31:02.765Z,60.20
2023-05-19T13:32:38.585Z,61.64
2023-05-19T13:34:05.016Z,63.29
2023-05-19T13:35:38.979Z,64.26
2023-05-19T13:37:14.033Z,62.03
2023-05-19T13:38:43.432Z,59.64
2023-05-19T13:40:28.638Z,56.95
2023-05-19T13:42:02.222Z,56.99
2023-05-19T13:43:38.268Z,58.76
2023-05-19T13:45:00.290Z,60.04
2023-05-19T13:46:44.756Z,61.90
2023-05-19T13:48:21.793Z,63.57
2023-05-19T13:49:57.916Z,63.60
2023-05-19T13:51:31.393Z,61.62
2023-05-19T13:53:12.172Z,58.27
2023-05-19T13:54:38.926Z,56.79
2023-05-19T13:56:12.757Z,57.79
2023-05-19T13:57:50.026Z,59.41
2023-05-19T14:00:00.274Z,61.31
2023-05-19T14:01:34.315Z,64.03
2023-05-19T14:03:20.003Z,64.76
2023-05-19T14:04:55.926Z,62.23
2023-05-19T14:06:25.199Z,59.46
2023-05-19T14:08:11.564Z,57.47
2023-05-19T14:09:52.591Z,57.69
2023-05-19T14:11:26.217Z,59.37
2023-05-19T14:13:29.038Z,60.94
2023-05-19T14:15:00.691Z,62.45
2023-05-19T14:16:23.025Z,64.53
2023-05-19T14:18:08.822Z,63.74
2023-05-19T14:19:42.296Z,60.88
2023-05-19T14:21:06.482Z,58.45
2023-05-19T14:22:28.077Z,57.06
2023-05-19T14:24:10.797Z,57.62
2023-05-19T14:25:44.820Z,59.43
2023-05-19T14:27:16.929Z,61.32
2023-05-19T14:28:58.295Z,63.30
2023-05-19T14:30:34.313Z,64.11
2023-05-19T14:32:17.275Z,61.61
2023-05-19T14:33:41.101Z,59.19
2023-05-19T14:35:14.585Z,57.41
2023-05-19T14:36:50.539Z,57.93
2023-05-19T14:38:19.692Z,58.84
2023-05-19T14:39:53.250Z,60.40
2023-05-19T14:41:29.159Z,62.42
2023-05-19T14:43:03.101Z,63.43
2023-05-19T14:44:25.100Z,62.79
2023-05-19T14:45:46.974Z,60.47
2023-05-19T14:47:18.507Z,58.20
2023-05-19T14:48:42.685Z,57.00
2023-05-19T14:50:24.197Z,57.84
2023-05-19T14:51:48.449Z,58.83
2023-05-19T14:53:29.433Z,59.98
2023-05-19T14:54:52.056Z,61.40
2023-05-19T14:56:16.322Z,62.81
2023-05-19T14:57:52.945Z,64.04
2023-05-19T14:59:25.003Z,61.83
2023-05-19T15:00:51.717Z,59.16
2023-05-19T15:02:36.513Z,56.69
2023-05-19T15:03:58.440Z,56.88
2023-05-19T15:05:22.811Z,57.67
2023-05-19T15:08:37.488Z,61.17
2023-05-19T15:09:59.742Z,62.29
2023-05-19T15:11:26.201Z,63.82
2023-05-19T15:12:51.046Z,63.60
2023-05-19T15:14:24.344Z,61.47
2023-05-19T15:16:08.217Z,58.45
2023-05-19T15:17:51.288Z,56.45
2023-05-19T15:19:24.913Z,57.47
2023-05-19T15:20:58.646Z,58.78
2023-05-19T15:22:31.949Z,60.46
2023-05-19T15:23:53.970Z,61.72
2023-05-19T15:25:18.202Z,62.59
2023-05-19T15:26:52.444Z,64.11
2023-05-19T15:28:16.719Z,62.91
2023-05-19T15:30:01.857Z,60.02
2023-05-19T15:31:38.142Z,57.40
2023-05-19T15:33:11.890Z,56.81
2023-05-19T15:34:35.865Z,58.03
2023-05-19T15:36:21.292Z,59.71
2023-05-19T15:37:57.615Z,61.54
2023-05-19T15:39:26.751Z,63.07
2023-05-19T15:41:02.350Z,64.13
2023-05-19T15:42:31.261Z,62.36
2023-05-19T15:44:07.413Z,60.05
2023-05-19T15:45:33.585Z,57.93
2023-05-19T15:47:07.020Z,57.21
2023-05-19T15:48:36.236Z,58.37
2023-05-19T15:50:12.914Z,60.14
2023-05-19T15:51:35.130Z,61.66
2023-05-19T15:53:15.425Z,63.09
2023-05-19T15:54:48.941Z,64.17
2023-05-19T15:56:22.554Z,61.74
2023-05-19T15:58:15.906Z,59.28
2023-05-19T15:59:37.422Z,56.89
2023-05-19T16:01:02.075Z,57.28
2023-05-19T16:02:31.189Z,58.75
2023-05-19T16:04:07.430Z,60.67
2023-05-19T16:05:42.892Z,62.70
2023-05-19T16:07:16.927Z,63.90
2023-05-19T16:09:03.502Z,62.64
2023-05-19T16:10:30.184Z,60.17
2023-05-19T16:11:56.725Z,57.98
2023-05-19T16:13:44.550Z,57.34
2023-05-19T16:15:25.832Z,58.74
2023-05-19T16:16:49.805Z,60.16
2023-05-19T16:18:11.806Z,61.58
2023-05-19T16:19:48.184Z,63.59
2023-05-19T16:21:11.981Z,64.22
2023-05-19T16:22:45.293Z,62.25
2023-05-19T16:24:30.722Z,59.66
2023-05-19T16:26:15.829Z,57.16
2023-05-19T16:27:39.443Z,57.47
2023-05-19T16:29:13.140Z,58.83
2023-05-19T16:30:43.941Z,60.37
2023-05-19T16:32:13.222Z,62.04
2023-05-19T16:33:49.359Z,63.73
2023-05-19T16:35:22.810Z,64.08
2023-05-19T16:36:56.366Z,61.63
2023-05-19T16:38:29.599Z,59.11
2023-05-19T16:40:03.522Z,57.01
2023-05-19T16:41:39.268Z,57.64
2023-05-19T16:43:01.545Z,58.84
2023-05-19T16:44:25.705Z,60.23
2023-05-19T16:45:58.994Z,61.86
2023-05-19T16:47:32.381Z,63.80
2023-05-19T16:48:54.796Z,63.93
2023-05-19T16:50:17.158Z,61.76
2023-05-19T16:51:52.745Z,59.35
2023-05-19T16:53:19.071Z,57.09
2023-05-19T16:54:52.700Z,57.02
2023-05-19T16:56:14.945Z,58.21
2023-05-19T16:57:39.286Z,59.87
2023-05-19T16:59:03.714Z,61.03
2023-05-19T17:00:27.424Z,62.45
2023-05-19T17:01:56.976Z,64.11
2023-05-19T17:03:30.950Z,63.26
2023-05-19T17:05:00.275Z,60.68
2023-05-19T17:06:26.822Z,58.33
2023-05-19T17:07:55.945Z,56.99
2023-05-19T17:09:30.618Z,57.84
2023-05-19T17:10:54.730Z,59.21
2023-05-19T17:12:18.902Z,60.66
2023-05-19T17:13:48.633Z,62.17
2023-05-19T17:15:22.069Z,64.13
2023-05-19T17:16:46.689Z,63.56
2023-05-19T17:18:20.744Z,61.35
2023-05-19T17:19:42.213Z,58.57
2023-05-19T17:21:06.483Z,56.85
2023-05-19T17:22:30.137Z,57.15
2023-05-19T17:23:52.628Z,58.35
2023-05-19T17:25:16.716Z,59.78
2023-05-19T17:26:40.699Z,61.23
2023-05-19T17:28:14.205Z,62.70
2023-05-19T17:29:37.950Z,64.25
2023-05-19T17:30:59.904Z,63.61
2023-05-19T17:32:28.221Z,61.58
2023-05-19T17:33:50.474Z,59.39
2023-05-19T17:35:22.082Z,57.27
2023-05-19T17:36:55.375Z,57.49
2023-05-19T17:38:40.589Z,59.41
2023-05-19T17:40:14.276Z,61.10
2023-05-19T17:41:35.912Z,62.66
2023-05-19T17:43:09.904Z,64.34
2023-05-19T17:44:43.260Z,63.66
2023-05-19T17:46:17.409Z,61.22
2023-05-19T17:47:53.497Z,59.13
2023-05-19T17:49:38.439Z,57.30
2023-05-19T17:51:13.068Z,58.24
2023-05-19T17:52:46.522Z,60.25
2023-05-19T17:54:19.993Z,62.09
2023-05-19T17:55:48.985Z,64.17
2023-05-19T17:57:13.793Z,63.92
2023-05-19T17:58:38.658Z,62.05
2023-05-19T18:00:12.646Z,60.05
2023-05-19T18:01:46.332Z,57.74
2023-05-19T18:03:08.157Z,57.53
2023-05-19T18:04:49.763Z,58.51
2023-05-19T18:06:23.400Z,60.56
2023-05-19T18:07:47.581Z,62.10
2023-05-19T18:09:09.765Z,63.79
2023-05-19T18:10:32.002Z,64.06
2023-05-19T18:12:03.785Z,62.19
2023-05-19T18:13:33.075Z,59.95
2023-05-19T18:15:04.646Z,57.66
2023-05-19T18:16:27.331Z,57.63
2023-05-19T18:18:16.939Z,59.19
2023-05-19T18:19:39.095Z,61.12
2023-05-19T18:21:15.066Z,63.09
2023-05-19T18:22:36.680Z,64.74
2023-05-19T18:24:03.419Z,63.71
2023-05-19T18:25:37.287Z,61.45
2023-05-19T18:26:59.554Z,59.53
2023-05-19T18:28:35.099Z,57.76
2023-05-19T18:29:59.294Z,58.07
2023-05-19T18:31:21.953Z,59.54
2023-05-19T18:33:03.365Z,61.46
2023-05-19T18:34:27.762Z,63.39
2023-05-19T18:36:01.537Z,64.82
2023-05-19T18:37:30.433Z,63.31
2023-05-19T18:39:00.097Z,61.03
2023-05-19T18:40:40.754Z,58.90
2023-05-19T18:42:02.989Z,57.30
2023-05-19T18:43:27.097Z,58.13
2023-05-19T18:44:53.127Z,59.64
2023-05-19T18:46:34.409Z,61.55
2023-05-19T18:47:58.815Z,63.44
2023-05-19T18:49:20.958Z,64.40
2023-05-19T18:51:03.674Z,62.81
2023-05-19T18:52:37.016Z,60.40
2023-05-19T18:54:06.634Z,58.05
2023-05-19T18:55:42.301Z,57.38
2023-05-19T18:57:07.122Z,58.72
2023-05-19T18:58:40.666Z,60.49
2023-05-19T19:00:04.249Z,62.08
2023-05-19T19:01:38.060Z,64.01
2023-05-19T19:03:10.249Z,64.35
2023-05-19T19:04:34.575Z,62.51
2023-05-19T19:05:56.621Z,60.53
2023-05-19T19:07:30.064Z,58.62
2023-05-19T19:09:04.087Z,57.69
2023-05-19T19:10:28.306Z,58.92
2023-05-19T19:11:50.248Z,60.49
2023-05-19T19:13:14.506Z,62.30
2023-05-19T19:14:40.808Z,64.46
2023-05-19T19:16:17.603Z,64.32
2023-05-19T19:17:42.037Z,62.35
2023-05-19T19:19:04.191Z,60.42
2023-05-19T19:20:37.442Z,58.54
2023-05-19T19:22:01.452Z,57.83
2023-05-19T19:23:23.538Z,58.98
2023-05-19T19:24:55.621Z,60.77
2023-05-19T19:26:29.564Z,62.40
2023-05-19T19:27:53.845Z,64.58
2023-05-19T19:29:30.101Z,64.04
2023-05-19T19:30:54.548Z,61.90
2023-05-19T19:32:40.743Z,59.85
2023-05-19T19:34:20.866Z,57.86
2023-05-19T19:35:42.185Z,58.19
2023-05-19T19:37:07.106Z,59.69
2023-05-19T19:38:31.193Z,61.10
2023-05-19T19:40:04.958Z,63.22
2023-05-19T19:41:29.672Z,64.88
2023-05-19T19:43:06.156Z,64.04
2023-05-19T19:44:49.885Z,61.70
2023-05-19T19:46:14.169Z,59.08
2023-05-19T19:47:36.070Z,57.53
2023-05-19T19:49:09.698Z,58.15
2023-05-19T19:51:02.935Z,59.97
2023-05-19T19:52:36.749Z,62.08
2023-05-19T19:54:08.336Z,64.36
2023-05-19T19:55:33.186Z,64.03
2023-05-19T19:57:18.346Z,62.04
2023-05-19T19:58:42.161Z,60.07
2023-05-19T20:00:08.330Z,58.21
2023-05-19T20:01:41.816Z,57.97
2023-05-19T20:03:13.656Z,59.47
2023-05-19T20:04:37.712Z,61.31
2023-05-19T20:06:08.073Z,63.54
2023-05-19T20:07:29.923Z,65.02
2023-05-19T20:09:15.494Z,63.11
2023-05-19T20:10:36.942Z,60.79
2023-05-19T20:12:10.564Z,58.70
2023-05-19T20:13:32.904Z,57.56